sensor_id;sensor_type;location;lat;lon;timestamp;pressure;altitude;pressure_sealevel;temperature;humidity
25130;BME280;13308;50.860;13.664;2023-02-21T07:07:11;96681.53;;;8.99;100.00
25130;BME280;13308;50.860;13.664;2023-02-21T07:09:36;96678.47;;;8.90;100.00
25130;BME280;13308;50.860;13.664;2023-02-21T07:12:02;96688.25;;;8.95;100.00
25130;BME280;13308;50.860;13.664;2023-02-21T07:14:28;96697.28;;;8.95;100.00
25130;BME280;13308;50.860;13.664;2023-02-21T07:16:53;96704.38;;;8.93;100.00
25130;BME280;13308;50.860;13.664;2023-02-21T07:19:19;96696.13;;;8.93;100.00
25130;BME280;13308;50.860;13.664;2023-02-21T07:21:44;96702.00;;;8.95;100.00
25130;BME280;13308;50.860;13.664;2023-02-21T07:24:09;96699.69;;;8.93;100.00
25130;BME280;13308;50.860;13.664;2023-02-21T07:26:35;96702.88;;;8.88;100.00
25130;BME280;13308;50.860;13.664;2023-02-21T07:29:02;96711.47;;;8.90;100.00
25130;BME280;13308;50.860;13.664;2023-02-21T07:31:27;96716.97;;;8.90;100.00
25130;BME280;13308;50.860;13.664;2023-02-21T07:33:53;96721.72;;;8.86;100.00
25130;BME280;13308;50.860;13.664;2023-02-21T07:36:18;96709.97;;;8.86;100.00
25130;BME280;13308;50.860;13.664;2023-02-21T07:38:43;96718.97;;;8.86;100.00
25130;BME280;13308;50.860;13.664;2023-02-21T07:41:09;96713.44;;;8.93;100.00
25130;BME280;13308;50.860;13.664;2023-02-21T07:43:35;96720.94;;;8.89;100.00
25130;BME280;13308;50.860;13.664;2023-02-21T07:46:00;96717.81;;;8.87;100.00
25130;BME280;13308;50.860;13.664;2023-02-21T07:48:26;96722.84;;;8.92;100.00
25130;BME280;13308;50.860;13.664;2023-02-21T07:50:51;96729.47;;;8.98;100.00
25130;BME280;13308;50.860;13.664;2023-02-21T07:53:17;96735.44;;;8.93;100.00
25130;BME280;13308;50.860;13.664;2023-02-21T07:55:42;96722.84;;;8.92;100.00
25130;BME280;13308;50.860;13.664;2023-02-21T07:58:08;96727.91;;;8.97;100.00
25130;BME280;13308;50.860;13.664;2023-02-21T08:00:33;96727.91;;;8.97;100.00
25130;BME280;13308;50.860;13.664;2023-02-21T08:02:59;96736.53;;;8.99;100.00
25130;BME280;13308;50.860;13.664;2023-02-21T08:05:24;96737.34;;;8.96;100.00
25130;BME280;13308;50.860;13.664;2023-02-21T08:07:50;96729.09;;;8.96;100.00
25130;BME280;13308;50.860;13.664;2023-02-21T08:10:24;96731.09;;;8.92;100.00
25130;BME280;13308;50.860;13.664;2023-02-21T08:12:49;96733.84;;;8.92;100.00
25130;BME280;13308;50.860;13.664;2023-02-21T08:15:15;96726.34;;;8.96;100.00
25130;BME280;13308;50.860;13.664;2023-02-21T08:17:41;96727.09;;;9.00;100.00
25130;BME280;13308;50.860;13.664;2023-02-21T08:20:07;96727.19;;;8.93;100.00
25130;BME280;13308;50.860;13.664;2023-02-21T08:22:35;96734.22;;;8.94;100.00
25130;BME280;13308;50.860;13.664;2023-02-21T08:25:01;96741.28;;;8.95;100.00
25130;BME280;13308;50.860;13.664;2023-02-21T08:27:26;96736.19;;;8.94;100.00
25130;BME280;13308;50.860;13.664;2023-02-21T08:29:51;96722.47;;;8.90;100.00
25130;BME280;13308;50.860;13.664;2023-02-21T08:32:18;96727.53;;;8.95;100.00
25130;BME280;13308;50.860;13.664;2023-02-21T08:34:45;96725.91;;;9.01;100.00
25130;BME280;13308;50.860;13.664;2023-02-21T08:37:11;96725.84;;;9.05;100.00
25130;BME280;13308;50.860;13.664;2023-02-21T08:39:44;96733.22;;;9.15;100.00
25130;BME280;13308;50.860;13.664;2023-02-21T08:42:10;96724.03;;;9.25;100.00
25130;BME280;13308;50.860;13.664;2023-02-21T08:44:36;96731.47;;;9.28;100.00
25130;BME280;13308;50.860;13.664;2023-02-21T08:47:01;96729.00;;;9.37;100.00
25130;BME280;13308;50.860;13.664;2023-02-21T08:49:26;96726.47;;;9.49;100.00
25130;BME280;13308;50.860;13.664;2023-02-21T08:51:52;96738.13;;;9.60;100.00
25130;BME280;13308;50.860;13.664;2023-02-21T08:54:19;96729.03;;;9.63;100.00
25130;BME280;13308;50.860;13.664;2023-02-21T08:56:44;96726.97;;;9.71;100.00
25130;BME280;13308;50.860;13.664;2023-02-21T08:59:09;96739.41;;;9.82;100.00
25130;BME280;13308;50.860;13.664;2023-02-21T09:01:35;96731.34;;;9.95;100.00
25130;BME280;13308;50.860;13.664;2023-02-21T09:04:02;96729.84;;;9.90;100.00
25130;BME280;13308;50.860;13.664;2023-02-21T09:06:27;96733.47;;;9.84;100.00
25130;BME280;13308;50.860;13.664;2023-02-21T09:08:53;96730.66;;;9.87;100.00
25130;BME280;13308;50.860;13.664;2023-02-21T09:11:19;96733.06;;;9.85;100.00
25130;BME280;13308;50.860;13.664;2023-02-21T09:13:44;96721.41;;;9.74;100.00
25130;BME280;13308;50.860;13.664;2023-02-21T09:16:09;96727.66;;;9.78;100.00
25130;BME280;13308;50.860;13.664;2023-02-21T09:18:35;96722.88;;;9.82;100.00
25130;BME280;13308;50.860;13.664;2023-02-21T09:21:00;96722.22;;;10.01;100.00
25130;BME280;13308;50.860;13.664;2023-02-21T09:23:27;96731.34;;;10.21;100.00
25130;BME280;13308;50.860;13.664;2023-02-21T09:25:53;96744.19;;;10.31;100.00
25130;BME280;13308;50.860;13.664;2023-02-21T09:28:18;96738.44;;;10.22;100.00
25130;BME280;13308;50.860;13.664;2023-02-21T09:30:44;96741.19;;;10.22;100.00
25130;BME280;13308;50.860;13.664;2023-02-21T09:33:10;96741.84;;;10.30;100.00
25130;BME280;13308;50.860;13.664;2023-02-21T09:35:35;96755.09;;;10.38;100.00
25130;BME280;13308;50.860;13.664;2023-02-21T09:38:02;96733.47;;;10.37;100.00
25130;BME280;13308;50.860;13.664;2023-02-21T09:40:44;96749.84;;;10.24;100.00
25130;BME280;13308;50.860;13.664;2023-02-21T09:43:20;96738.06;;;10.20;100.00
25130;BME280;13308;50.860;13.664;2023-02-21T09:45:53;96759.31;;;10.23;100.00
25130;BME280;13308;50.860;13.664;2023-02-21T09:48:20;96757.50;;;10.36;100.00
25130;BME280;13308;50.860;13.664;2023-02-21T09:50:48;96747.78;;;10.28;100.00
25130;BME280;13308;50.860;13.664;2023-02-21T09:53:19;96761.69;;;10.21;100.00
25130;BME280;13308;50.860;13.664;2023-02-21T09:55:45;96744.41;;;10.17;100.00
25130;BME280;13308;50.860;13.664;2023-02-21T09:58:14;96734.84;;;10.25;100.00
25130;BME280;13308;50.860;13.664;2023-02-21T10:00:39;96747.03;;;10.51;99.98
25130;BME280;13308;50.860;13.664;2023-02-21T10:03:43;96757.75;;;10.68;99.20
25130;BME280;13308;50.860;13.664;2023-02-21T10:08:53;96761.47;;;10.58;99.25
25130;BME280;13308;50.860;13.664;2023-02-21T10:14:37;96756.69;;;10.62;97.28
25130;BME280;13308;50.860;13.664;2023-02-21T10:17:30;96760.50;;;10.91;96.69
25130;BME280;13308;50.860;13.664;2023-02-21T10:20:04;96763.78;;;12.03;92.14
25130;BME280;13308;50.860;13.664;2023-02-21T10:22:36;96776.00;;;11.86;91.30
25130;BME280;13308;50.860;13.664;2023-02-21T10:27:49;96768.19;;;11.42;91.50
25130;BME280;13308;50.860;13.664;2023-02-21T10:30:23;96776.09;;;11.01;93.47
25130;BME280;13308;50.860;13.664;2023-02-21T10:32:49;96770.44;;;11.08;93.43
25130;BME280;13308;50.860;13.664;2023-02-21T10:35:15;96767.19;;;11.13;93.37
25130;BME280;13308;50.860;13.664;2023-02-21T10:37:57;96768.16;;;11.03;92.90
25130;BME280;13308;50.860;13.664;2023-02-21T10:40:52;96780.28;;;10.86;95.05
25130;BME280;13308;50.860;13.664;2023-02-21T10:46:22;96787.63;;;10.96;94.39
25130;BME280;13308;50.860;13.664;2023-02-21T10:48:52;96781.25;;;10.99;93.98
25130;BME280;13308;50.860;13.664;2023-02-21T10:51:30;96779.78;;;11.14;93.95
25130;BME280;13308;50.860;13.664;2023-02-21T10:54:17;96783.03;;;11.09;93.26
25130;BME280;13308;50.860;13.664;2023-02-21T10:56:44;96786.53;;;10.90;93.99
25130;BME280;13308;50.860;13.664;2023-02-21T10:59:19;96790.50;;;10.89;94.34
25130;BME280;13308;50.860;13.664;2023-02-21T11:01:45;96782.56;;;10.91;94.65
25130;BME280;13308;50.860;13.664;2023-02-21T11:06:44;96790.59;;;10.82;94.67
25130;BME280;13308;50.860;13.664;2023-02-21T11:12:00;96790.72;;;10.75;94.69
25130;BME280;13308;50.860;13.664;2023-02-21T11:14:26;96790.03;;;10.71;94.71
25130;BME280;13308;50.860;13.664;2023-02-21T11:22:10;96788.44;;;10.70;95.87
25130;BME280;13308;50.860;13.664;2023-02-21T11:24:45;96785.28;;;10.72;95.62
25130;BME280;13308;50.860;13.664;2023-02-21T11:27:11;96779.41;;;10.70;95.41
25130;BME280;13308;50.860;13.664;2023-02-21T11:29:41;96772.69;;;10.71;95.75
25130;BME280;13308;50.860;13.664;2023-02-21T11:32:11;96765.31;;;10.64;96.05
25130;BME280;13308;50.860;13.664;2023-02-21T11:34:37;96767.72;;;10.62;96.12
25130;BME280;13308;50.860;13.664;2023-02-21T11:37:12;96771.78;;;10.54;97.12
25130;BME280;13308;50.860;13.664;2023-02-21T11:39:38;96766.44;;;10.67;97.04
25130;BME280;13308;50.860;13.664;2023-02-21T11:44:50;96767.91;;;10.94;94.38
25130;BME280;13308;50.860;13.664;2023-02-21T11:47:34;96761.47;;;10.81;94.60
25130;BME280;13308;50.860;13.664;2023-02-21T11:50:09;96771.81;;;10.77;94.67
25130;BME280;13308;50.860;13.664;2023-02-21T11:52:51;96763.59;;;10.93;94.65
25130;BME280;13308;50.860;13.664;2023-02-21T11:55:23;96758.69;;;11.04;94.27
25130;BME280;13308;50.860;13.664;2023-02-21T11:57:57;96751.69;;;11.00;94.18
25130;BME280;13308;50.860;13.664;2023-02-21T12:00:48;96758.88;;;10.94;95.02
25130;BME280;13308;50.860;13.664;2023-02-21T12:03:51;96754.38;;;11.03;94.94
25130;BME280;13308;50.860;13.664;2023-02-21T12:07:03;96750.06;;;11.02;95.80
25130;BME280;13308;50.860;13.664;2023-02-21T12:09:43;96749.28;;;11.21;95.29
25130;BME280;13308;50.860;13.664;2023-02-21T12:12:35;96759.13;;;11.22;96.16
25130;BME280;13308;50.860;13.664;2023-02-21T12:15:25;96745.22;;;11.06;95.25
25130;BME280;13308;50.860;13.664;2023-02-21T12:18:18;96740.31;;;10.94;96.06
25130;BME280;13308;50.860;13.664;2023-02-21T12:23:30;96729.53;;;11.03;95.80
25130;BME280;13308;50.860;13.664;2023-02-21T12:26:19;96734.06;;;11.13;94.64
25130;BME280;13308;50.860;13.664;2023-02-21T12:29:01;96735.69;;;11.11;94.99
25130;BME280;13308;50.860;13.664;2023-02-21T12:35:03;96728.25;;;11.27;94.07
25130;BME280;13308;50.860;13.664;2023-02-21T12:40:19;96721.41;;;11.16;95.61
25130;BME280;13308;50.860;13.664;2023-02-21T12:43:08;96723.22;;;11.03;94.28
25130;BME280;13308;50.860;13.664;2023-02-21T12:46:10;96724.91;;;10.97;94.77
25130;BME280;13308;50.860;13.664;2023-02-21T12:48:42;96718.34;;;11.10;94.76
25130;BME280;13308;50.860;13.664;2023-02-21T12:51:13;96716.56;;;11.20;95.15
25130;BME280;13308;50.860;13.664;2023-02-21T12:53:44;96719.56;;;11.29;94.25
25130;BME280;13308;50.860;13.664;2023-02-21T13:02:41;96701.63;;;11.17;94.04
25130;BME280;13308;50.860;13.664;2023-02-21T13:05:21;96709.22;;;11.13;93.79
25130;BME280;13308;50.860;13.664;2023-02-21T13:07:54;96706.47;;;11.13;93.88
25130;BME280;13308;50.860;13.664;2023-02-21T13:10:25;96708.66;;;11.02;93.40
25130;BME280;13308;50.860;13.664;2023-02-21T13:15:25;96700.63;;;10.88;94.88
25130;BME280;13308;50.860;13.664;2023-02-21T13:17:58;96702.31;;;10.82;95.03
25130;BME280;13308;50.860;13.664;2023-02-21T13:20:28;96704.16;;;10.69;95.40
25130;BME280;13308;50.860;13.664;2023-02-21T13:23:16;96699.84;;;10.68;95.48
25130;BME280;13308;50.860;13.664;2023-02-21T13:26:03;96698.41;;;10.60;96.09
25130;BME280;13308;50.860;13.664;2023-02-21T13:28:32;96695.78;;;10.53;96.29
25130;BME280;13308;50.860;13.664;2023-02-21T13:31:02;96690.84;;;10.64;95.87
25130;BME280;13308;50.860;13.664;2023-02-21T13:33:43;96695.34;;;10.55;95.89
25130;BME280;13308;50.860;13.664;2023-02-21T13:36:26;96684.25;;;10.58;95.51
25130;BME280;13308;50.860;13.664;2023-02-21T13:38:57;96694.03;;;10.63;95.94
25130;BME280;13308;50.860;13.664;2023-02-21T13:41:26;96694.13;;;10.56;95.77
25130;BME280;13308;50.860;13.664;2023-02-21T13:43:53;96693.25;;;10.62;95.61
25130;BME280;13308;50.860;13.664;2023-02-21T14:02:54;96691.56;;;10.68;94.86
25130;BME280;13308;50.860;13.664;2023-02-21T14:05:21;96680.31;;;10.79;93.94
25130;BME280;13308;50.860;13.664;2023-02-21T14:08:01;96691.50;;;10.72;94.75
25130;BME280;13308;50.860;13.664;2023-02-21T14:10:49;96697.78;;;10.72;94.91
25130;BME280;13308;50.860;13.664;2023-02-21T14:13:21;96687.38;;;10.60;95.44
25130;BME280;13308;50.860;13.664;2023-02-21T14:15:55;96688.59;;;10.59;95.57
25130;BME280;13308;50.860;13.664;2023-02-21T14:18:28;96688.63;;;10.56;95.75
25130;BME280;13308;50.860;13.664;2023-02-21T14:20:56;96690.28;;;10.53;96.31
25130;BME280;13308;50.860;13.664;2023-02-21T14:23:36;96692.41;;;10.65;95.46
25130;BME280;13308;50.860;13.664;2023-02-21T14:26:04;96692.03;;;10.63;95.32
25130;BME280;13308;50.860;13.664;2023-02-21T14:31:53;96687.59;;;10.69;94.43
25130;BME280;13308;50.860;13.664;2023-02-21T14:37:23;96692.44;;;10.62;95.73
25130;BME280;13308;50.860;13.664;2023-02-21T14:39:57;96692.66;;;10.51;96.32
25130;BME280;13308;50.860;13.664;2023-02-21T14:48:04;96686.72;;;10.30;97.12
25130;BME280;13308;50.860;13.664;2023-02-21T14:50:44;96684.97;;;10.39;97.49
25130;BME280;13308;50.860;13.664;2023-02-21T15:01:41;96691.84;;;10.31;98.46
25130;BME280;13308;50.860;13.664;2023-02-21T15:04:16;96687.03;;;10.35;98.27
25130;BME280;13308;50.860;13.664;2023-02-21T15:06:52;96688.00;;;10.25;98.67
25130;BME280;13308;50.860;13.664;2023-02-21T15:09:20;96689.06;;;10.31;98.81
25130;BME280;13308;50.860;13.664;2023-02-21T15:11:46;96691.56;;;10.22;98.69
25130;BME280;13308;50.860;13.664;2023-02-21T15:14:21;96682.94;;;10.20;99.23
25130;BME280;13308;50.860;13.664;2023-02-21T15:16:57;96690.03;;;10.21;99.68
25130;BME280;13308;50.860;13.664;2023-02-21T15:19:27;96685.25;;;10.25;99.86
25130;BME280;13308;50.860;13.664;2023-02-21T15:22:13;96681.81;;;10.18;99.94
25130;BME280;13308;50.860;13.664;2023-02-21T15:24:39;96692.31;;;10.26;99.66
25130;BME280;13308;50.860;13.664;2023-02-21T15:27:09;96686.78;;;10.26;99.52
25130;BME280;13308;50.860;13.664;2023-02-21T15:29:35;96689.66;;;10.19;100.00
25130;BME280;13308;50.860;13.664;2023-02-21T15:32:01;96685.78;;;10.17;99.95
25130;BME280;13308;50.860;13.664;2023-02-21T15:34:41;96690.88;;;10.18;100.00
25130;BME280;13308;50.860;13.664;2023-02-21T15:37:23;96690.03;;;10.21;99.94
25130;BME280;13308;50.860;13.664;2023-02-21T15:40:01;96696.38;;;10.18;100.00
25130;BME280;13308;50.860;13.664;2023-02-21T15:42:30;96703.06;;;10.17;100.00
25130;BME280;13308;50.860;13.664;2023-02-21T15:45:02;96702.38;;;10.13;100.00
25130;BME280;13308;50.860;13.664;2023-02-21T15:47:31;96702.38;;;10.13;100.00
25130;BME280;13308;50.860;13.664;2023-02-21T15:50:15;96701.94;;;10.15;100.00
25130;BME280;13308;50.860;13.664;2023-02-21T15:52:46;96698.75;;;10.16;100.00
25130;BME280;13308;50.860;13.664;2023-02-21T16:00:33;96705.25;;;10.06;100.00
25130;BME280;13308;50.860;13.664;2023-02-21T16:03:31;96709.16;;;10.05;100.00
25130;BME280;13308;50.860;13.664;2023-02-21T16:08:52;96706.84;;;10.04;100.00
25130;BME280;13308;50.860;13.664;2023-02-21T16:11:36;96707.63;;;10.01;100.00
25130;BME280;13308;50.860;13.664;2023-02-21T16:14:02;96707.63;;;10.01;100.00
25130;BME280;13308;50.860;13.664;2023-02-21T16:16:32;96720.22;;;10.02;100.00
25130;BME280;13308;50.860;13.664;2023-02-21T16:18:58;96715.75;;;10.11;100.00
25130;BME280;13308;50.860;13.664;2023-02-21T16:21:27;96718.63;;;10.04;100.00
25130;BME280;13308;50.860;13.664;2023-02-21T16:23:53;96722.66;;;9.96;100.00
25130;BME280;13308;50.860;13.664;2023-02-21T16:26:24;96722.72;;;9.93;100.00
25130;BME280;13308;50.860;13.664;2023-02-21T16:28:55;96715.72;;;9.88;100.00
25130;BME280;13308;50.860;13.664;2023-02-21T16:31:30;96727.91;;;9.87;100.00
25130;BME280;13308;50.860;13.664;2023-02-21T16:33:56;96727.44;;;9.92;100.00
25130;BME280;13308;50.860;13.664;2023-02-21T16:36:27;96717.22;;;9.93;100.00
25130;BME280;13308;50.860;13.664;2023-02-21T16:38:54;96734.16;;;9.91;100.00
25130;BME280;13308;50.860;13.664;2023-02-21T16:41:20;96729.09;;;9.86;100.00
25130;BME280;13308;50.860;13.664;2023-02-21T16:43:46;96730.78;;;9.80;100.00
25130;BME280;13308;50.860;13.664;2023-02-21T16:46:12;96726.81;;;9.81;100.00
25130;BME280;13308;50.860;13.664;2023-02-21T16:48:38;96724.91;;;9.78;100.00
25130;BME280;13308;50.860;13.664;2023-02-21T16:51:08;96728.47;;;9.75;100.00
25130;BME280;13308;50.860;13.664;2023-02-21T16:53:34;96723.75;;;9.76;100.00
25130;BME280;13308;50.860;13.664;2023-02-21T16:56:00;96721.06;;;9.72;100.00
25130;BME280;13308;50.860;13.664;2023-02-21T16:58:32;96726.97;;;9.71;100.00
25130;BME280;13308;50.860;13.664;2023-02-21T17:01:02;96736.44;;;9.70;100.00
25130;BME280;13308;50.860;13.664;2023-02-21T17:03:27;96734.94;;;9.65;100.00
25130;BME280;13308;50.860;13.664;2023-02-21T17:05:54;96736.47;;;9.66;100.00
25130;BME280;13308;50.860;13.664;2023-02-21T17:08:20;96739.66;;;9.65;100.00
25130;BME280;13308;50.860;13.664;2023-02-21T17:10:46;96738.88;;;9.64;100.00
25130;BME280;13308;50.860;13.664;2023-02-21T17:13:11;96735.75;;;9.62;100.00
25130;BME280;13308;50.860;13.664;2023-02-21T17:15:36;96742.09;;;9.59;100.00
25130;BME280;13308;50.860;13.664;2023-02-21T17:18:02;96740.06;;;9.63;100.00
25130;BME280;13308;50.860;13.664;2023-02-21T17:20:28;96737.28;;;9.63;100.00
25130;BME280;13308;50.860;13.664;2023-02-21T17:22:54;96749.16;;;9.60;100.00
25130;BME280;13308;50.860;13.664;2023-02-21T17:25:21;96752.72;;;9.57;100.00
25130;BME280;13308;50.860;13.664;2023-02-21T17:27:47;96741.34;;;9.55;100.00
25130;BME280;13308;50.860;13.664;2023-02-21T17:30:13;96745.31;;;9.54;100.00
25130;BME280;13308;50.860;13.664;2023-02-21T17:32:39;96746.91;;;9.52;100.00
25130;BME280;13308;50.860;13.664;2023-02-21T17:35:05;96749.31;;;9.50;100.00
25130;BME280;13308;50.860;13.664;2023-02-21T17:37:30;96746.94;;;9.48;100.00
25130;BME280;13308;50.860;13.664;2023-02-21T17:39:56;96754.84;;;9.46;100.00
25130;BME280;13308;50.860;13.664;2023-02-21T17:42:22;96754.75;;;9.53;100.00
25130;BME280;13308;50.860;13.664;2023-02-21T17:44:47;96753.59;;;9.51;100.00
25130;BME280;13308;50.860;13.664;2023-02-21T17:47:20;96756.03;;;9.45;100.00
25130;BME280;13308;50.860;13.664;2023-02-21T17:49:47;96757.59;;;9.46;100.00
25130;BME280;13308;50.860;13.664;2023-02-21T17:52:13;96763.47;;;9.48;100.00
25130;BME280;13308;50.860;13.664;2023-02-21T17:54:39;96767.88;;;9.42;100.00
25130;BME280;13308;50.860;13.664;2023-02-21T17:57:05;96763.13;;;9.46;100.00
25130;BME280;13308;50.860;13.664;2023-02-21T17:59:33;96762.72;;;9.44;100.00
25130;BME280;13308;50.860;13.664;2023-02-21T18:01:58;96760.41;;;9.39;100.00
25130;BME280;13308;50.860;13.664;2023-02-21T18:04:23;96758.88;;;9.38;100.00
25130;BME280;13308;50.860;13.664;2023-02-21T18:06:49;96760.41;;;9.39;100.00
25130;BME280;13308;50.860;13.664;2023-02-21T18:09:14;96757.66;;;9.39;100.00
25130;BME280;13308;50.860;13.664;2023-02-21T18:11:39;96766.72;;;9.40;100.00
25130;BME280;13308;50.860;13.664;2023-02-21T18:14:05;96758.88;;;9.38;100.00
25130;BME280;13308;50.860;13.664;2023-02-21T18:16:30;96755.75;;;9.36;100.00
25130;BME280;13308;50.860;13.664;2023-02-21T18:18:55;96767.13;;;9.38;100.00
25130;BME280;13308;50.860;13.664;2023-02-21T18:21:21;96762.81;;;9.37;100.00
25130;BME280;13308;50.860;13.664;2023-02-21T18:23:48;96755.75;;;9.36;100.00
25130;BME280;13308;50.860;13.664;2023-02-21T18:26:13;96763.22;;;9.36;100.00
25130;BME280;13308;50.860;13.664;2023-02-21T18:28:39;96764.41;;;9.35;100.00
25130;BME280;13308;50.860;13.664;2023-02-21T18:31:05;96758.16;;;9.34;100.00
25130;BME280;13308;50.860;13.664;2023-02-21T18:33:30;96766.00;;;9.32;100.00
25130;BME280;13308;50.860;13.664;2023-02-21T18:35:57;96765.25;;;9.32;100.00
25130;BME280;13308;50.860;13.664;2023-02-21T18:38:23;96764.91;;;9.26;100.00
25130;BME280;13308;50.860;13.664;2023-02-21T18:40:49;96768.06;;;9.28;100.00
25130;BME280;13308;50.860;13.664;2023-02-21T18:43:23;96770.81;;;9.25;100.00
25130;BME280;13308;50.860;13.664;2023-02-21T18:45:51;96773.59;;;9.21;100.00
25130;BME280;13308;50.860;13.664;2023-02-21T18:48:17;96770.44;;;9.23;100.00
25130;BME280;13308;50.860;13.664;2023-02-21T18:50:43;96771.59;;;9.25;100.00
25130;BME280;13308;50.860;13.664;2023-02-21T18:53:09;96778.66;;;9.26;100.00
25130;BME280;13308;50.860;13.664;2023-02-21T18:55:34;96774.41;;;9.22;100.00
25130;BME280;13308;50.860;13.664;2023-02-21T18:58:00;96777.19;;;9.18;100.00
25130;BME280;13308;50.860;13.664;2023-02-21T19:00:26;96775.22;;;9.19;100.00
25130;BME280;13308;50.860;13.664;2023-02-21T19:02:52;96776.34;;;9.21;100.00
